createdAt,value
2017-07-31T07:58:09.091Z,1007.4
2017-07-31T09:13:16.952Z,1006.6
2017-07-31T09:14:18.606Z,1006.7
2017-07-31T09:15:20.263Z,1006.8
2017-07-31T09:16:21.914Z,1006.7
2017-07-31T09:17:23.575Z,1006.5
2017-07-31T09:18:25.227Z,1006.7
2017-07-31T09:19:26.883Z,1006.6
2017-07-31T09:20:28.539Z,1006.8
2017-07-31T09:21:30.205Z,1006.8
2017-07-31T09:22:31.853Z,1006.8
2017-07-31T09:23:33.557Z,1006.7
2017-07-31T09:24:35.220Z,1006.8
2017-07-31T09:25:36.876Z,1006.7
2017-07-31T09:26:38.531Z,1006.7
2017-07-31T09:27:40.188Z,1006.7
2017-07-31T09:28:41.847Z,1006.7
2017-07-31T09:29:43.504Z,1006.7
2017-07-31T09:30:45.159Z,1006.7
2017-07-31T09:31:46.818Z,1006.7
2017-07-31T09:32:48.477Z,1006.7
2017-07-31T09:33:50.135Z,1006.7
2017-07-31T09:34:51.801Z,1006.7
2017-07-31T09:35:53.448Z,1006.7
2017-07-31T09:36:55.107Z,1006.7
2017-07-31T09:37:56.760Z,1006.7
2017-07-31T09:38:58.421Z,1006.7
2017-07-31T09:40:00.082Z,1006.8
2017-07-31T09:41:01.736Z,1006.7
2017-07-31T09:42:03.444Z,1006.8
2017-07-31T09:43:05.103Z,1006.7
2017-07-31T09:44:06.761Z,1006.7
2017-07-31T09:45:08.423Z,1006.7
2017-07-31T09:46:10.081Z,1006.7
2017-07-31T09:47:11.739Z,1006.7
2017-07-31T09:48:13.398Z,1006.7
2017-07-31T09:49:15.058Z,1006.7
2017-07-31T09:50:16.722Z,1006.7
2017-07-31T09:51:18.374Z,1006.7
2017-07-31T09:52:20.039Z,1006.6
2017-07-31T09:53:21.692Z,1006.7
2017-07-31T09:54:23.351Z,1006.6
2017-07-31T09:55:25.010Z,1006.6
2017-07-31T09:56:26.669Z,1006.7
2017-07-31T09:57:28.327Z,1006.7
2017-07-31T09:58:29.986Z,1006.8
2017-07-31T09:59:31.643Z,1006.8
2017-07-31T10:00:33.303Z,1006.8
2017-07-31T10:01:34.962Z,1006.9
2017-07-31T10:02:36.623Z,1006.8
2017-07-31T10:03:38.285Z,1006.9
2017-07-31T10:04:39.944Z,1007.0
2017-07-31T10:05:41.605Z,1007.0
2017-07-31T10:06:43.268Z,1007.0
2017-07-31T10:07:44.925Z,1006.9
2017-07-31T10:08:46.584Z,1007.0
2017-07-31T10:09:48.245Z,1006.7
2017-07-31T10:10:49.908Z,1006.9
2017-07-31T10:11:51.567Z,1006.9
2017-07-31T10:12:53.228Z,1006.9
2017-07-31T10:13:54.892Z,1007.0
2017-07-31T10:14:56.550Z,1006.6
2017-07-31T10:15:58.209Z,1006.6
2017-07-31T10:16:59.875Z,1006.7
2017-07-31T10:18:01.532Z,1006.6
2017-07-31T10:19:03.191Z,1006.7
2017-07-31T10:20:04.854Z,1006.9
2017-07-31T10:21:06.515Z,1007.0
2017-07-31T10:22:08.174Z,1006.6
2017-07-31T10:23:09.831Z,1006.6
2017-07-31T10:24:11.498Z,1006.8
2017-07-31T10:25:13.151Z,1007.0
2017-07-31T10:26:14.812Z,1006.8
2017-07-31T10:27:16.472Z,1007.0
2017-07-31T10:28:18.129Z,1007.0
2017-07-31T10:29:19.790Z,1007.0
2017-07-31T10:30:21.449Z,1006.9
2017-07-31T10:31:23.108Z,1006.9
2017-07-31T10:32:24.769Z,1006.9
2017-07-31T10:33:26.456Z,1006.8
2017-07-31T10:34:28.118Z,1006.8
2017-07-31T10:35:29.782Z,1006.8
2017-07-31T10:36:31.450Z,1006.9
2017-07-31T10:37:33.108Z,1006.9
2017-07-31T10:38:34.772Z,1006.9
2017-07-31T10:39:36.431Z,1006.9
2017-07-31T10:40:38.120Z,1006.9
2017-07-31T10:41:39.773Z,1006.8
2017-07-31T10:42:41.436Z,1006.9
2017-07-31T10:43:43.092Z,1007.0
2017-07-31T10:44:44.756Z,1007.0
2017-07-31T10:45:46.417Z,1007.0
2017-07-31T10:46:48.077Z,1007.0
2017-07-31T10:47:49.738Z,1007.0
2017-07-31T10:48:51.397Z,1006.8
2017-07-31T10:49:53.059Z,1007.1
2017-07-31T10:50:54.723Z,1006.8
2017-07-31T10:51:56.379Z,1006.7
2017-07-31T10:52:58.044Z,1007.0
2017-07-31T10:53:59.708Z,1006.7
2017-07-31T10:55:01.367Z,1006.8
2017-07-31T10:56:03.037Z,1007.1
2017-07-31T10:57:04.697Z,1006.8
2017-07-31T10:58:06.356Z,1006.8
2017-07-31T10:59:08.015Z,1006.8
2017-07-31T11:00:09.681Z,1007.1
2017-07-31T11:01:11.335Z,1007.0
2017-07-31T11:02:12.998Z,1007.1
2017-07-31T11:03:14.657Z,1007.1
2017-07-31T11:04:16.315Z,1006.9
2017-07-31T11:05:17.974Z,1007.2
2017-07-31T11:06:19.635Z,1006.9
2017-07-31T11:07:21.296Z,1006.9
2017-07-31T11:08:22.954Z,1007.0
2017-07-31T11:09:24.611Z,1006.9
2017-07-31T11:10:26.271Z,1006.9
2017-07-31T11:11:27.932Z,1007.0
2017-07-31T11:12:29.591Z,1007.3
2017-07-31T11:13:31.253Z,1007.3
2017-07-31T11:14:32.915Z,1007.2
2017-07-31T11:15:34.573Z,1007.1
2017-07-31T11:16:36.230Z,1007.1
2017-07-31T11:17:37.892Z,1007.0
2017-07-31T11:18:39.554Z,1007.0
2017-07-31T11:19:41.210Z,1006.9
2017-07-31T11:20:42.870Z,1006.9
2017-07-31T11:21:44.533Z,1007.0
2017-07-31T11:22:46.189Z,1007.0
2017-07-31T11:23:47.845Z,1007.2
2017-07-31T11:24:49.507Z,1007.2
2017-07-31T11:25:51.167Z,1007.1
2017-07-31T11:26:52.828Z,1007.1
2017-07-31T11:27:54.488Z,1007.0
2017-07-31T11:28:56.148Z,1007.1
2017-07-31T11:29:57.808Z,1007.0
2017-07-31T11:30:59.463Z,1007.0
2017-07-31T11:32:01.124Z,1007.0
2017-07-31T11:33:02.783Z,1007.0
2017-07-31T11:34:04.442Z,1007.1
2017-07-31T11:35:06.100Z,1007.3
2017-07-31T11:36:07.766Z,1007.2
2017-07-31T11:37:09.423Z,1007.2
2017-07-31T11:38:11.082Z,1007.2
2017-07-31T11:39:12.742Z,1007.2
2017-07-31T11:40:14.405Z,1007.2
2017-07-31T11:41:16.064Z,1007.2
2017-07-31T11:42:17.725Z,1007.2
2017-07-31T11:43:19.397Z,1007.2
2017-07-31T11:44:21.052Z,1007.3
2017-07-31T11:45:22.716Z,1007.3
2017-07-31T11:46:24.379Z,1007.3
2017-07-31T11:47:26.039Z,1007.0
2017-07-31T11:48:27.698Z,1007.2
2017-07-31T11:49:29.361Z,1007.3
2017-07-31T11:50:31.021Z,1007.3
2017-07-31T11:51:32.686Z,1007.3
2017-07-31T11:52:34.344Z,1007.3
2017-07-31T11:53:36.008Z,1007.3
2017-07-31T11:54:37.671Z,1007.4
2017-07-31T11:55:39.333Z,1007.3
2017-07-31T11:56:40.993Z,1007.3
2017-07-31T11:57:42.657Z,1007.4
2017-07-31T11:58:44.317Z,1007.3
2017-07-31T11:59:45.976Z,1007.3
2017-07-31T12:00:47.654Z,1007.3
2017-07-31T12:01:49.341Z,1007.3
2017-07-31T12:02:51.006Z,1007.3
2017-07-31T12:03:52.665Z,1007.3
2017-07-31T12:04:54.329Z,1007.3
2017-07-31T12:05:55.987Z,1007.3
2017-07-31T12:06:57.649Z,1007.1
2017-07-31T12:07:59.311Z,1007.2
2017-07-31T12:09:01.036Z,1007.1
2017-07-31T12:10:02.642Z,1007.3
2017-07-31T12:11:04.300Z,1007.3
2017-07-31T12:12:05.965Z,1007.4
2017-07-31T12:13:07.627Z,1007.5
2017-07-31T12:14:09.289Z,1007.5
2017-07-31T12:15:10.949Z,1007.3
2017-07-31T12:16:12.610Z,1007.4
2017-07-31T12:17:14.273Z,1007.4
2017-07-31T12:18:15.939Z,1007.4
2017-07-31T12:19:17.593Z,1007.3
2017-07-31T12:20:19.256Z,1007.4
2017-07-31T12:21:20.921Z,1007.3
2017-07-31T12:22:22.580Z,1007.4
2017-07-31T12:23:24.241Z,1007.4
2017-07-31T12:24:25.903Z,1007.4
2017-07-31T12:25:27.562Z,1007.3
2017-07-31T12:26:29.218Z,1007.4
2017-07-31T12:27:30.887Z,1007.4
2017-07-31T12:28:32.547Z,1007.2
2017-07-31T12:29:34.206Z,1007.5
2017-07-31T12:30:35.869Z,1007.5
2017-07-31T12:31:37.530Z,1007.5
2017-07-31T12:32:39.192Z,1007.5
2017-07-31T12:33:40.856Z,1007.3
2017-07-31T12:34:42.511Z,1007.3
2017-07-31T12:35:44.171Z,1007.2
2017-07-31T12:36:45.833Z,1007.1
2017-07-31T12:37:47.497Z,1007.3
2017-07-31T12:38:49.153Z,1007.4
2017-07-31T12:39:50.815Z,1007.4
2017-07-31T12:40:52.476Z,1007.5
2017-07-31T12:41:54.138Z,1007.4
2017-07-31T12:42:55.799Z,1007.4
2017-07-31T12:43:57.459Z,1007.5
2017-07-31T12:44:59.122Z,1007.4
2017-07-31T12:46:00.782Z,1007.3
2017-07-31T12:47:02.445Z,1007.3
2017-07-31T12:48:04.105Z,1007.3
2017-07-31T12:49:05.766Z,1007.3
2017-07-31T12:50:07.429Z,1007.4
2017-07-31T12:51:09.088Z,1007.3
2017-07-31T12:52:10.745Z,1007.3
2017-07-31T12:53:12.442Z,1007.4
2017-07-31T12:54:14.097Z,1007.4
2017-07-31T12:55:15.769Z,1007.4
